TimeAKDT,TemperatureF,Dew PointF,Humidity,Sea Level PressureIn,VisibilityMPH,Wind Direction,Wind SpeedMPH,Gust SpeedMPH,PrecipitationIn,Events,Conditions,WindDirDegrees,DateUTC
12:58 AM,46.9,37.9,71,29.64,10.0,East,15.0,21.9,0.00,,Overcast,80,2012-10-04 08:58:00
1:58 AM,46.9,37.9,71,29.60,10.0,ENE,16.1,25.3,N/A,,Overcast,70,2012-10-04 09:58:00
2:58 AM,46.0,37.9,73,29.57,10.0,East,17.3,25.3,N/A,,Overcast,90,2012-10-04 10:58:00
3:58 AM,44.1,41.0,89,29.55,8.0,East,16.1,24.2,0.00,Rain,Light Rain,80,2012-10-04 11:58:00
4:58 AM,43.0,42.1,97,29.52,9.0,East,15.0,23.0,0.02,,Overcast,90,2012-10-04 12:58:00
5:58 AM,45.0,42.1,90,29.50,10.0,ESE,19.6,27.6,0.01,Rain,Light Rain,110,2012-10-04 13:58:00
6:58 AM,45.0,43.0,93,29.49,6.0,ESE,19.6,27.6,0.02,Rain,Light Rain,120,2012-10-04 14:58:00
7:58 AM,45.0,44.1,97,29.49,7.0,ESE,15.0,-,0.05,Rain,Light Rain,110,2012-10-04 15:58:00
8:58 AM,45.0,44.1,97,29.50,10.0,ESE,13.8,-,0.01,Rain,Light Rain,120,2012-10-04 16:58:00
9:22 AM,44.6,44.6,100,29.46,7.0,ESE,16.1,23.0,0.00,Rain,Light Rain,120,2012-10-04 17:22:00
9:58 AM,46.0,44.1,93,29.51,9.0,SE,17.3,-,0.01,,Overcast,130,2012-10-04 17:58:00
10:26 AM,46.4,44.6,93,29.47,9.0,SE,17.3,27.6,0.00,Rain,Light Rain,130,2012-10-04 18:26:00
10:58 AM,46.0,45.0,96,29.52,7.0,SE,18.4,26.5,0.03,Rain,Light Rain,130,2012-10-04 18:58:00
11:58 AM,46.0,45.0,96,29.54,10.0,SE,15.0,-,0.00,Rain,Light Rain,140,2012-10-04 19:58:00
12:21 PM,46.4,44.6,93,29.51,8.0,SE,16.1,21.9,0.00,Rain,Light Rain,140,2012-10-04 20:21:00
12:38 PM,46.4,44.6,93,29.52,9.0,SE,15.0,21.9,0.00,Rain,Light Rain,140,2012-10-04 20:38:00
12:43 PM,46.4,44.6,93,29.52,9.0,SSE,16.1,23.0,0.00,Rain,Light Rain,150,2012-10-04 20:43:00
12:58 PM,46.9,45.0,93,29.57,9.0,SSE,15.0,-,0.00,Rain,Light Rain,150,2012-10-04 20:58:00
1:58 PM,46.0,43.0,89,29.60,8.0,South,15.0,20.7,0.00,,Overcast,180,2012-10-04 21:58:00
2:10 PM,44.6,42.8,93,29.57,8.0,South,15.0,24.2,N/A,,Overcast,170,2012-10-04 22:10:00
2:58 PM,46.0,42.1,86,29.61,8.0,South,13.8,-,N/A,,Overcast,170,2012-10-04 22:58:00
3:58 PM,45.0,41.0,86,29.62,8.0,SE,10.4,-,0.00,,Overcast,140,2012-10-04 23:58:00
4:58 PM,45.0,41.0,86,29.63,7.0,SE,11.5,-,0.00,,Overcast,140,2012-10-05 00:58:00
5:58 PM,46.0,41.0,83,29.62,9.0,ESE,11.5,-,0.00,,Overcast,110,2012-10-05 01:58:00
6:58 PM,46.0,41.0,83,29.62,9.0,SE,16.1,23.0,N/A,,Mostly Cloudy,130,2012-10-05 02:58:00
7:12 PM,42.8,41.0,93,29.59,4.0,South,20.7,34.5,0.04,Rain,Rain,170,2012-10-05 03:12:00
7:22 PM,42.8,39.2,87,29.59,9.0,SSE,17.3,-,0.04,Rain,Light Rain,150,2012-10-05 03:22:00
7:58 PM,43.0,39.9,89,29.63,9.0,SSE,17.3,-,0.04,,Partly Cloudy,150,2012-10-05 03:58:00
8:58 PM,43.0,39.9,89,29.64,10.0,SSE,18.4,25.3,N/A,,Overcast,150,2012-10-05 04:58:00
9:58 PM,43.0,39.0,86,29.65,10.0,SE,16.1,21.9,0.00,,Mostly Cloudy,140,2012-10-05 05:58:00
10:58 PM,42.1,39.0,89,29.66,8.0,SE,17.3,24.2,N/A,,Scattered Clouds,140,2012-10-05 06:58:00
11:58 PM,44.1,37.9,79,29.66,10.0,SSE,21.9,32.2,N/A,,Mostly Cloudy,150,2012-10-05 07:58:00